Edelstein, Illinois
Current Conditions -  °F | °C
As of 2:35 AM on Sunday 23 Nov 2014 (Local Time) from KC75 Reporting Station
Overcast Overcast  
Wind Chill: 51°   Ceiling: 6000
Heat Index: 51°   Visibility: 10mi
Dew Point: 47°   Wind: 12mph
Humidity: 83%   Direction: 180°S
Pressure: 29.77"   Gusts: NA
Location:  40.94°N, 89.63°W
Report Text: KC75 230835Z AUTO 18010KT 10SM SCT015 OVC060 11/08 A2977 RMK AO2 T01080081
Loading
Personal Weather Stations






























Interactive Weather Map New forecast layout! Learn more

10-Day Weather Forecast

Advertisements
Track Severe Weather on mobile